Time;durP1;ratioP1;P1;durP2;ratioP2;P2;SDS_P1;SDS_P2;PMS_P1;PMS_P2;Temp;Humidity;BMP_temperature;BMP_pressure;BME280_temperature;BME280_humidity;BME280_pressure;Samples;Min_cycle;Max_cycle;Signal;HPM_P1;HPM_P2
2023/04/24 00:01:02;;;;;;;4.03;3.60;;;;;;;14.68;100.00;98199.56;6110809;23;20170;-82
2023/04/24 00:03:29;;;;;;;5.07;4.10;;;;;;;14.65;100.00;98195.50;6134947;23;20177;-82
2023/04/24 00:05:56;;;;;;;4.60;4.20;;;;;;;14.53;100.00;98184.28;6135040;23;20174;-82
2023/04/24 00:08:23;;;;;;;5.00;4.50;;;;;;;14.54;100.00;98185.91;6134899;23;20551;-82
2023/04/24 00:10:52;;;;;;;4.47;4.17;;;;;;;14.50;100.00;98182.97;6111385;23;20170;-82
2023/04/24 00:13:19;;;;;;;4.33;3.93;;;;;;;14.40;100.00;98182.22;6111123;23;20169;-82
2023/04/24 00:15:45;;;;;;;4.90;4.40;;;;;;;14.39;100.00;98175.22;6135293;23;20261;-82
2023/04/24 00:18:12;;;;;;;4.50;4.10;;;;;;;14.39;100.00;98177.91;6110933;23;20200;-82
2023/04/24 00:20:39;;;;;;;4.43;4.03;;;;;;;14.42;100.00;98183.53;6135057;23;20198;-82
2023/04/24 00:23:06;;;;;;;4.97;4.40;;;;;;;14.46;100.00;98173.81;6135339;23;20189;-83
2023/04/24 00:25:33;;;;;;;4.70;4.30;;;;;;;14.29;100.00;98184.13;6135188;23;20155;-81
2023/04/24 00:27:59;;;;;;;5.07;4.67;;;;;;;14.24;100.00;98186.84;6158778;23;20236;-82
2023/04/24 00:30:26;;;;;;;5.93;4.50;;;;;;;14.17;100.00;98190.94;6134691;23;20177;-82
2023/04/24 00:32:53;;;;;;;4.20;3.80;;;;;;;14.15;100.00;98190.41;6159248;23;20177;-82
2023/04/24 00:35:20;;;;;;;4.33;3.93;;;;;;;14.11;100.00;98185.56;6134701;23;20233;-82
2023/04/24 00:37:47;;;;;;;4.73;4.00;;;;;;;14.05;100.00;98183.19;6110637;23;20197;-82
2023/04/24 00:40:14;;;;;;;4.20;3.90;;;;;;;14.02;100.00;98183.75;6134816;23;20198;-83
2023/04/24 00:42:41;;;;;;;4.77;4.10;;;;;;;13.93;100.00;98180.00;6135056;23;20173;-82
2023/04/24 00:45:09;;;;;;;4.73;4.10;;;;;;;13.90;100.00;98183.28;6110498;23;20202;-82
2023/04/24 00:47:36;;;;;;;4.90;4.40;;;;;;;13.86;100.00;98179.50;6159312;23;20189;-82
2023/04/24 00:50:07;;;;;;;4.60;4.20;;;;;;;13.82;100.00;98187.31;6110320;23;20180;-82
2023/04/24 00:52:34;;;;;;;5.40;4.00;;;;;;;13.73;100.00;98188.16;6134642;23;20225;-81
2023/04/24 00:55:00;;;;;;;4.43;4.03;;;;;;;13.58;100.00;98189.00;6134834;23;20171;-82
2023/04/24 00:57:27;;;;;;;4.50;4.10;;;;;;;13.54;100.00;98179.88;6134156;23;20613;-82
2023/04/24 00:59:54;;;;;;;4.50;4.10;;;;;;;13.47;100.00;98196.31;6110208;23;20181;-83
2023/04/24 01:02:22;;;;;;;4.57;4.17;;;;;;;13.43;100.00;98195.25;6110238;23;20173;-82
2023/04/24 01:04:50;;;;;;;4.50;4.10;;;;;;;13.43;100.00;98197.94;6110432;23;20225;-82
2023/04/24 01:07:20;;;;;;;4.47;3.73;;;;;;;13.27;100.00;98199.03;6134599;23;20198;-83
2023/04/24 01:09:51;;;;;;;4.47;4.07;;;;;;;13.11;100.00;98195.53;6135238;23;20282;-82
2023/04/24 01:12:20;;;;;;;5.20;4.30;;;;;;;13.03;100.00;98197.94;6135015;23;20174;-82
2023/04/24 01:14:46;;;;;;;4.90;4.43;;;;;;;12.95;100.00;98196.63;6110144;23;20243;-82
2023/04/24 01:17:15;;;;;;;4.53;4.10;;;;;;;12.88;100.00;98192.59;6134392;23;20264;-82
2023/04/24 01:19:44;;;;;;;4.70;4.30;;;;;;;12.83;100.00;98192.59;6159080;23;20321;-82
2023/04/24 01:22:13;;;;;;;4.57;4.13;;;;;;;12.75;100.00;98194.72;6110807;23;20555;-82
2023/04/24 01:24:41;;;;;;;5.67;4.80;;;;;;;12.65;100.00;98199.28;6157558;23;20243;-82
2023/04/24 01:27:09;;;;;;;4.80;4.40;;;;;;;12.66;100.00;98190.97;6163882;23;20195;-84
2023/04/24 01:29:36;;;;;;;4.73;4.33;;;;;;;12.58;100.00;98194.19;6139020;23;20173;-82
2023/04/24 01:32:04;;;;;;;5.07;4.57;;;;;;;12.56;100.00;98198.19;6163863;23;20257;-82
2023/04/24 01:34:31;;;;;;;5.10;4.70;;;;;;;12.45;100.00;98207.31;6163291;23;20170;-83
2023/04/24 01:36:58;;;;;;;5.03;4.63;;;;;;;12.38;100.00;98204.88;6139433;23;20255;-81
2023/04/24 01:39:25;;;;;;;4.90;4.50;;;;;;;12.31;100.00;98204.34;6139538;23;20168;-81
2023/04/24 01:41:53;;;;;;;4.73;4.33;;;;;;;12.22;100.00;98204.06;6139825;23;20222;-82
2023/04/24 01:44:20;;;;;;;5.47;4.50;;;;;;;12.24;100.00;98206.47;6164258;23;20206;-82
2023/04/24 01:46:47;;;;;;;4.40;4.10;;;;;;;12.13;100.00;98205.63;6164034;23;20185;-83
2023/04/24 01:49:14;;;;;;;4.53;4.13;;;;;;;12.01;100.00;98205.03;6163807;23;20190;-84
2023/04/24 01:51:41;;;;;;;4.67;3.87;;;;;;;11.83;100.00;98187.53;6139924;23;20186;-83
2023/04/24 01:54:08;;;;;;;4.20;3.90;;;;;;;11.78;100.00;98179.47;6164188;23;20257;-82
2023/04/24 01:56:37;;;;;;;5.23;3.80;;;;;;;11.71;100.00;98189.59;6163727;23;20201;-84
2023/04/24 01:59:04;;;;;;;4.40;4.03;;;;;;;11.69;100.00;98196.28;6140113;23;20225;-82
2023/04/24 02:01:38;;;;;;;4.10;3.80;;;;;;;11.63;100.00;98197.31;6139109;23;20193;-82
2023/04/24 02:04:06;;;;;;;4.53;4.23;;;;;;;11.61;100.00;98205.66;6140223;23;20171;-82
2023/04/24 02:06:35;;;;;;;5.40;4.73;;;;;;;11.68;100.00;98200.84;6140134;23;20171;-82
2023/04/24 02:09:02;;;;;;;4.27;3.97;;;;;;;11.69;100.00;98207.84;6139057;23;20185;-83
2023/04/24 02:11:29;;;;;;;5.00;4.50;;;;;;;11.63;100.00;98206.19;6163906;23;20174;-83
2023/04/24 02:13:57;;;;;;;4.40;4.00;;;;;;;11.47;100.00;98216.03;6139611;23;20652;-83
2023/04/24 02:16:23;;;;;;;4.60;4.20;;;;;;;11.41;100.00;98209.03;6164048;23;20253;-82
2023/04/24 02:18:50;;;;;;;4.50;4.10;;;;;;;11.23;100.00;98205.94;6163547;23;20177;-82
2023/04/24 02:21:17;;;;;;;4.77;4.37;;;;;;;11.08;100.00;98208.53;6163847;23;20194;-81
2023/04/24 02:23:44;;;;;;;4.63;4.27;;;;;;;11.05;100.00;98201.81;6150758;23;20321;-83
2023/04/24 02:26:12;;;;;;;4.70;4.30;;;;;;;10.98;100.00;98190.50;6134093;23;20314;-84
2023/04/24 02:28:39;;;;;;;4.73;4.23;;;;;;;10.96;100.00;98187.28;6109899;23;20237;-82
2023/04/24 02:31:06;;;;;;;4.70;4.30;;;;;;;10.74;100.00;98200.75;6110254;23;20209;-82
2023/04/24 02:33:33;;;;;;;4.50;4.10;;;;;;;10.68;100.00;98203.66;6158937;23;20613;-83
2023/04/24 02:36:00;;;;;;;4.60;4.20;;;;;;;10.66;100.00;98203.09;6110043;23;20178;-83
2023/04/24 02:38:26;;;;;;;5.73;4.23;;;;;;;10.63;100.00;98201.75;6134229;23;20167;-83
2023/04/24 02:40:53;;;;;;;5.53;4.53;;;;;;;10.66;100.00;98200.41;6134191;23;20166;-83
2023/04/24 02:43:20;;;;;;;5.07;4.67;;;;;;;10.56;100.00;98203.81;6134319;23;20204;-82
2023/04/24 02:45:47;;;;;;;5.10;4.70;;;;;;;10.59;100.00;98197.94;6110233;23;20174;-83
2023/04/24 02:48:13;;;;;;;5.17;4.73;;;;;;;10.53;100.00;98201.63;6109578;23;20209;-83
2023/04/24 02:50:40;;;;;;;6.77;4.70;;;;;;;10.47;100.00;98192.75;6110055;23;20253;-83
2023/04/24 02:53:07;;;;;;;5.03;4.50;;;;;;;10.49;100.00;98197.84;6134258;23;20233;-83
2023/04/24 02:55:34;;;;;;;5.30;4.80;;;;;;;10.41;100.00;98193.75;6110110;23;20636;-84
2023/04/24 02:58:01;;;;;;;5.53;5.13;;;;;;;10.51;100.00;98183.13;6109617;23;20170;-83
2023/04/24 03:00:27;;;;;;;5.40;4.90;;;;;;;10.46;100.00;98191.13;6109505;23;20202;-83
2023/04/24 03:02:54;;;;;;;5.30;4.80;;;;;;;10.41;100.00;98177.69;6158952;23;20189;-83
2023/04/24 03:05:21;;;;;;;5.07;4.63;;;;;;;10.38;100.00;98182.75;6110257;23;20258;-84
2023/04/24 03:07:48;;;;;;;4.67;4.30;;;;;;;10.33;100.00;98180.00;6133722;23;20276;-82
2023/04/24 03:10:15;;;;;;;5.10;4.63;;;;;;;10.22;100.00;98179.09;6133724;23;20171;-81
2023/04/24 03:12:41;;;;;;;5.10;4.70;;;;;;;10.26;100.00;98185.59;6110057;23;20691;-82
2023/04/24 03:15:09;;;;;;;4.90;4.50;;;;;;;10.20;100.00;98175.06;6109307;23;20257;-83
2023/04/24 03:17:36;;;;;;;5.50;5.00;;;;;;;10.15;100.00;98173.97;6134594;23;20166;-83
2023/04/24 03:20:05;;;;;;;4.87;4.37;;;;;;;10.18;100.00;98177.19;6158731;23;20158;-84
2023/04/24 03:22:33;;;;;;;6.30;4.70;;;;;;;10.11;100.00;98175.50;6111563;23;20230;-81
2023/04/24 03:25:01;;;;;;;5.67;5.07;;;;;;;10.09;100.00;98169.56;6134279;23;20289;-82
2023/04/24 03:27:30;;;;;;;5.10;4.60;;;;;;;10.11;100.00;98178.16;6135593;23;20174;-82
2023/04/24 03:30:03;;;;;;;4.83;4.43;;;;;;;10.05;100.00;98179.16;6137923;23;20158;-84
2023/04/24 03:32:39;;;;;;;4.63;4.33;;;;;;;10.06;100.00;98179.97;6162383;23;20195;-82
2023/04/24 03:35:09;;;;;;;5.20;4.60;;;;;;;10.02;100.00;98179.69;6160920;23;20510;-83
2023/04/24 03:37:36;;;;;;;4.83;4.43;;;;;;;9.98;100.00;98173.22;6159939;23;20257;-83
2023/04/24 03:40:25;;;;;;;4.90;4.50;;;;;;;9.98;100.00;98181.25;6165165;23;20499;-82
2023/04/24 03:42:53;;;;;;;5.00;4.60;;;;;;;9.97;100.00;98182.28;6135599;23;20245;-84
2023/04/24 03:45:20;;;;;;;4.77;4.27;;;;;;;9.96;100.00;98174.50;6135754;23;20201;-82
2023/04/24 03:47:49;;;;;;;4.70;4.30;;;;;;;9.99;100.00;98182.84;6136673;23;20194;-82
2023/04/24 03:50:16;;;;;;;5.33;4.60;;;;;;;10.02;100.00;98184.22;6135347;23;20174;-84
2023/04/24 03:52:43;;;;;;;5.40;4.90;;;;;;;10.01;100.00;98179.91;6135717;23;20193;-83
2023/04/24 03:55:16;;;;;;;5.70;5.10;;;;;;;9.94;100.00;98184.63;6161245;23;20170;-82
2023/04/24 03:57:45;;;;;;;5.10;4.63;;;;;;;9.97;100.00;98193.00;6136942;23;20174;-82
2023/04/24 04:00:20;;;;;;;5.10;4.60;;;;;;;10.01;100.00;98188.75;6138414;23;20179;-83
2023/04/24 04:02:55;;;;;;;5.30;4.90;;;;;;;10.05;100.00;98189.88;6162374;23;20217;-84
2023/04/24 04:05:22;;;;;;;5.53;5.03;;;;;;;10.06;100.00;98194.16;6159675;23;20174;-82
2023/04/24 04:07:49;;;;;;;5.03;4.57;;;;;;;10.12;100.00;98200.38;6135429;23;20217;-84
2023/04/24 04:10:17;;;;;;;6.17;5.30;;;;;;;10.08;100.00;98194.72;6135167;23;20182;-83
2023/04/24 04:12:43;;;;;;;5.23;4.73;;;;;;;10.18;100.00;98194.03;6135333;23;20178;-84
2023/04/24 04:15:10;;;;;;;5.20;4.80;;;;;;;10.25;100.00;98193.84;6134912;23;20174;-84
2023/04/24 04:17:38;;;;;;;5.30;4.80;;;;;;;10.35;100.00;98194.78;6159921;23;20197;-81
2023/04/24 04:20:09;;;;;;;5.13;4.73;;;;;;;10.34;100.00;98195.84;6160051;23;20185;-83
2023/04/24 04:22:38;;;;;;;4.93;4.53;;;;;;;10.43;100.00;98201.53;6136892;23;20631;-82
2023/04/24 04:25:08;;;;;;;5.30;4.80;;;;;;;10.65;100.00;98204.94;6164700;23;20224;-82
2023/04/24 04:27:36;;;;;;;4.93;4.50;;;;;;;10.77;100.00;98202.13;6164340;23;20644;-83
2023/04/24 04:30:09;;;;;;;4.13;3.73;;;;;;;10.89;100.00;98206.25;6189351;23;20166;-82
2023/04/24 04:32:56;;;;;;;4.00;3.60;;;;;;;11.07;100.00;98201.53;6168509;23;20593;-84
2023/04/24 04:35:24;;;;;;;3.53;2.90;;;;;;;11.43;100.00;98206.09;6188992;23;20224;-86
2023/04/24 04:37:52;;;;;;;2.90;2.60;;;;;;;11.54;100.00;98202.38;6165094;23;20620;-83
2023/04/24 04:40:37;;;;;;;3.73;2.70;;;;;;;11.54;100.00;98213.13;6172264;23;20157;-81
2023/04/24 04:43:06;;;;;;;5.37;2.90;;;;;;;11.60;100.00;98217.44;6164586;23;20173;-82
2023/04/24 04:45:41;;;;;;;4.70;3.07;;;;;;;11.76;100.00;98213.78;6166005;23;20173;-83
2023/04/24 04:48:43;;;;;;;3.73;3.37;;;;;;;11.91;100.00;98219.22;6077768;23;20279;-83
2023/04/24 04:51:10;;;;;;;4.30;3.70;;;;;;;12.06;100.00;98226.53;6170577;23;20202;-82
2023/04/24 04:53:37;;;;;;;4.57;4.10;;;;;;;12.21;100.00;98217.75;6140519;23;20193;-82
2023/04/24 04:56:04;;;;;;;3.53;3.27;;;;;;;12.44;100.00;98219.13;6163806;23;20625;-82
2023/04/24 04:58:38;;;;;;;3.30;3.00;;;;;;;12.72;100.00;98221.34;6189141;23;20184;-83
2023/04/24 05:01:08;;;;;;;4.20;3.30;;;;;;;13.09;100.00;98224.56;6141355;23;20159;-83
2023/04/24 05:03:40;;;;;;;3.13;2.83;;;;;;;13.53;100.00;98234.78;6164871;23;20198;-82
2023/04/24 05:06:10;;;;;;;4.90;4.37;;;;;;;13.84;100.00;98230.13;6139709;23;20170;-82
2023/04/24 05:08:38;;;;;;;3.80;3.33;;;;;;;13.99;100.00;98228.19;6138761;23;20631;-83
2023/04/24 05:11:08;;;;;;;2.93;2.20;;;;;;;14.33;100.00;98230.97;6139400;23;20560;-82
2023/04/24 05:13:36;;;;;;;2.43;2.13;;;;;;;14.41;100.00;98227.75;6163420;23;20167;-82
2023/04/24 05:16:12;;;;;;;2.13;1.77;;;;;;;14.64;100.00;98234.34;6165140;23;20159;-82
2023/04/24 05:18:39;;;;;;;2.80;2.00;;;;;;;14.84;100.00;98223.41;6163076;23;20247;-82
2023/04/24 05:21:09;;;;;;;2.20;2.10;;;;;;;15.11;100.00;98228.34;6163851;23;20204;-82
2023/04/24 05:23:38;;;;;;;2.17;2.00;;;;;;;15.24;100.00;98230.38;6152680;23;20203;-82
2023/04/24 05:26:05;;;;;;;2.20;2.10;;;;;;;15.35;100.00;98223.78;6109053;23;20178;-82
2023/04/24 05:28:36;;;;;;;2.37;1.90;;;;;;;15.46;100.00;98218.31;6110459;23;20189;-82
2023/04/24 05:31:07;;;;;;;2.80;2.07;;;;;;;15.71;100.00;98228.88;6112141;23;20184;-82
2023/04/24 05:33:34;;;;;;;2.00;1.90;;;;;;;15.97;100.00;98227.50;6134514;23;20208;-82
2023/04/24 05:36:01;;;;;;;2.03;1.83;;;;;;;16.19;100.00;98237.78;6158020;23;20167;-82
2023/04/24 05:38:28;;;;;;;2.10;2.00;;;;;;;16.26;100.00;98230.94;6133851;23;20174;-82
2023/04/24 05:40:55;;;;;;;2.00;1.83;;;;;;;16.52;100.00;98228.66;6133689;23;20262;-81
2023/04/24 05:43:22;;;;;;;2.20;1.90;;;;;;;16.65;100.00;98235.31;6109734;23;20197;-82
2023/04/24 05:45:49;;;;;;;1.97;1.87;;;;;;;16.78;100.00;98236.47;6133532;23;20174;-82
2023/04/24 05:48:17;;;;;;;3.33;1.93;;;;;;;16.87;100.00;98242.81;6133778;23;20190;-82
2023/04/24 05:50:43;;;;;;;2.03;1.90;;;;;;;16.94;100.00;98237.81;6133693;23;20269;-81
2023/04/24 05:53:11;;;;;;;1.70;1.60;;;;;;;16.93;100.00;98239.75;6109808;23;20185;-82
2023/04/24 05:55:37;;;;;;;1.90;1.67;;;;;;;16.89;100.00;98227.88;6133799;23;20175;-82
2023/04/24 05:58:05;;;;;;;1.97;1.87;;;;;;;16.90;100.00;98234.09;6134061;23;20166;-82
2023/04/24 06:00:34;;;;;;;1.87;1.77;;;;;;;16.99;100.00;98224.22;6133949;23;20229;-82
2023/04/24 06:03:05;;;;;;;2.90;1.53;;;;;;;16.95;100.00;98228.63;6135001;23;20204;-82
2023/04/24 06:05:33;;;;;;;3.03;1.50;;;;;;;16.93;100.00;98223.53;6134083;23;20167;-82
2023/04/24 06:08:01;;;;;;;2.13;1.50;;;;;;;16.66;100.00;98223.38;6110159;23;20609;-81
2023/04/24 06:10:32;;;;;;;1.57;1.47;;;;;;;16.76;100.00;98230.53;6134421;23;20167;-81
2023/04/24 06:13:00;;;;;;;1.47;1.37;;;;;;;16.84;100.00;98225.28;6134047;23;20178;-82
2023/04/24 06:15:30;;;;;;;1.90;1.67;;;;;;;16.81;100.00;98225.03;6110105;23;20163;-82
2023/04/24 06:18:03;;;;;;;2.57;1.63;;;;;;;16.71;100.00;98224.09;6112401;23;20166;-82
2023/04/24 06:20:30;;;;;;;1.83;1.57;;;;;;;16.68;100.00;98215.78;6134112;23;20167;-82
2023/04/24 06:22:57;;;;;;;4.33;1.77;;;;;;;16.61;100.00;98218.84;6109226;23;20175;-82
2023/04/24 06:25:26;;;;;;;3.03;1.60;;;;;;;16.69;100.00;98210.09;6109679;23;20213;-81
2023/04/24 06:27:55;;;;;;;2.03;1.40;;;;;;;16.76;100.00;98222.41;6109430;23;20177;-82
2023/04/24 06:30:22;;;;;;;1.50;1.40;;;;;;;16.69;100.00;98214.69;6133825;23;20194;-82
2023/04/24 06:32:49;;;;;;;1.47;1.33;;;;;;;16.61;100.00;98212.66;6109447;23;20202;-82
2023/04/24 06:35:15;;;;;;;2.43;1.40;;;;;;;16.60;100.00;98214.56;6134144;23;20175;-82
2023/04/24 06:37:43;;;;;;;1.30;1.20;;;;;;;16.57;100.00;98217.78;6133943;23;20177;-82
2023/04/24 06:40:10;;;;;;;2.30;1.30;;;;;;;16.51;100.00;98208.16;6133622;23;20171;-82
2023/04/24 06:42:37;;;;;;;1.53;1.40;;;;;;;16.49;100.00;98217.66;6133723;23;20205;-82
2023/04/24 06:45:07;;;;;;;1.43;1.30;;;;;;;16.51;100.00;98220.88;6110566;23;20218;-81
2023/04/24 06:47:34;;;;;;;1.30;1.10;;;;;;;16.52;100.00;98222.47;6109530;23;20245;-81
2023/04/24 06:50:01;;;;;;;1.87;1.20;;;;;;;16.59;100.00;98218.34;6133595;23;20201;-82
2023/04/24 06:52:27;;;;;;;1.30;1.20;;;;;;;16.72;100.00;98219.50;6133842;23;20250;-82
2023/04/24 06:55:00;;;;;;;1.20;1.10;;;;;;;16.68;100.00;98216.59;6109288;23;20213;-83
2023/04/24 06:57:27;;;;;;;2.40;1.30;;;;;;;16.71;100.00;98213.28;6135975;23;20162;-82
2023/04/24 06:59:54;;;;;;;1.40;1.30;;;;;;;16.75;100.00;98224.31;6111625;23;20171;-81
2023/04/24 07:02:21;;;;;;;1.20;1.10;;;;;;;16.75;100.00;98223.53;6111829;23;20656;-82
2023/04/24 07:04:48;;;;;;;1.53;1.10;;;;;;;16.75;100.00;98228.94;6135291;23;20510;-82
2023/04/24 07:07:15;;;;;;;1.17;1.07;;;;;;;16.63;100.00;98227.47;6111439;23;20194;-83
2023/04/24 07:09:42;;;;;;;3.77;1.20;;;;;;;16.37;100.00;98238.91;6135310;23;20214;-82
2023/04/24 07:12:13;;;;;;;1.17;1.07;;;;;;;16.33;100.00;98232.47;6111361;23;20167;-82
2023/04/24 07:14:40;;;;;;;1.30;1.20;;;;;;;16.34;100.00;98244.88;6111932;23;20617;-82
2023/04/24 07:17:06;;;;;;;1.30;1.00;;;;;;;16.33;100.00;98241.38;6111526;23;20170;-82
2023/04/24 07:19:35;;;;;;;1.20;0.97;;;;;;;16.39;100.00;98240.22;6135409;23;20269;-83
2023/04/24 07:22:03;;;;;;;1.10;1.00;;;;;;;16.31;100.00;98248.97;6111124;23;20696;-83
2023/04/24 07:24:32;;;;;;;0.90;0.90;;;;;;;16.27;100.00;98251.47;6111624;23;20237;-82
2023/04/24 07:27:00;;;;;;;1.00;0.90;;;;;;;16.21;100.00;98259.91;6111561;23;20189;-82
2023/04/24 07:29:27;;;;;;;1.43;0.80;;;;;;;16.01;100.00;98262.84;6111115;23;20277;-82
2023/04/24 07:31:54;;;;;;;0.90;0.80;;;;;;;15.86;100.00;98264.63;6135141;23;20202;-83
2023/04/24 07:34:21;;;;;;;0.77;0.77;;;;;;;15.84;100.00;98257.91;6111035;23;20174;-82
2023/04/24 07:36:47;;;;;;;0.70;0.70;;;;;;;15.92;100.00;98261.84;6135220;23;20180;-82
2023/04/24 07:39:14;;;;;;;0.60;0.60;;;;;;;15.96;100.00;98262.91;6135483;23;20651;-82
2023/04/24 07:41:41;;;;;;;1.13;0.60;;;;;;;15.79;100.00;98266.06;6135353;23;20269;-82
2023/04/24 07:44:07;;;;;;;0.80;0.77;;;;;;;15.82;100.00;98260.06;6110880;23;20175;-84
2023/04/24 07:46:34;;;;;;;1.33;0.60;;;;;;;15.83;100.00;98267.91;6111036;23;20254;-82
2023/04/24 07:49:01;;;;;;;0.60;0.60;;;;;;;15.80;100.00;98260.38;6110896;23;20656;-82
2023/04/24 07:51:39;;;;;;;0.63;0.63;;;;;;;15.64;100.00;98272.41;6115585;23;20166;-82
2023/04/24 07:54:06;;;;;;;0.60;0.60;;;;;;;15.63;100.00;98272.72;6135093;23;20261;-82
2023/04/24 07:56:33;;;;;;;1.10;0.63;;;;;;;15.55;100.00;98276.00;6110603;23;20684;-84
2023/04/24 07:59:01;;;;;;;0.70;0.60;;;;;;;15.62;100.00;98273.78;6134895;23;20254;-82
2023/04/24 08:01:27;;;;;;;0.67;0.67;;;;;;;15.58;100.00;98273.56;6135085;23;20174;-81
2023/04/24 08:03:54;;;;;;;0.80;0.60;;;;;;;15.57;100.00;98281.94;6134669;23;20181;-82
2023/04/24 08:06:22;;;;;;;0.60;0.60;;;;;;;15.55;100.00;98279.50;6109178;23;20178;-82
2023/04/24 08:08:48;;;;;;;0.83;0.70;;;;;;;15.57;100.00;98274.66;6134696;23;20167;-82
2023/04/24 08:11:15;;;;;;;0.93;0.70;;;;;;;15.52;100.00;98280.09;6135032;23;20209;-83
2023/04/24 08:13:42;;;;;;;0.73;0.70;;;;;;;15.48;100.00;98278.22;6135284;23;20688;-83
2023/04/24 08:16:08;;;;;;;0.80;0.60;;;;;;;15.40;100.00;98282.31;6134970;23;20159;-83
2023/04/24 08:18:35;;;;;;;1.30;0.80;;;;;;;15.52;100.00;98276.59;6110566;23;20181;-82
2023/04/24 08:21:02;;;;;;;0.60;0.60;;;;;;;15.53;100.00;98283.59;6134592;23;20170;-83
2023/04/24 08:23:29;;;;;;;0.70;0.50;;;;;;;15.52;100.00;98280.09;6114413;23;20288;-82
2023/04/24 08:25:57;;;;;;;0.50;0.50;;;;;;;15.59;100.00;98287.84;6159234;23;20515;-82
2023/04/24 08:28:23;;;;;;;0.60;0.60;;;;;;;15.62;100.00;98281.91;6159816;23;20260;-82
2023/04/24 08:30:54;;;;;;;0.90;0.60;;;;;;;15.32;100.00;98296.41;6135095;23;20269;-83
2023/04/24 08:33:24;;;;;;;1.27;0.60;;;;;;;15.32;100.00;98291.03;6160964;23;20171;-82
2023/04/24 08:35:52;;;;;;;0.87;0.63;;;;;;;15.46;100.00;98293.88;6135111;23;20228;-83
2023/04/24 08:38:19;;;;;;;0.87;0.67;;;;;;;15.49;100.00;98299.50;6159546;23;20213;-83
2023/04/24 08:40:49;;;;;;;0.60;0.60;;;;;;;15.48;100.00;98297.09;6159515;23;20498;-84
2023/04/24 08:43:16;;;;;;;0.73;0.70;;;;;;;15.51;100.00;98308.16;6135056;23;20174;-84
2023/04/24 08:45:43;;;;;;;0.60;0.60;;;;;;;15.46;100.00;98301.97;6159269;23;20209;-82
2023/04/24 08:48:10;;;;;;;0.50;0.50;;;;;;;15.16;100.00;98317.34;6159255;23;20190;-81
2023/04/24 08:50:53;;;;;;;1.37;0.57;;;;;;;15.22;100.00;98312.69;6141186;23;20205;-82
2023/04/24 08:53:20;;;;;;;0.90;0.60;;;;;;;15.17;100.00;98312.72;6158858;23;20165;-82
2023/04/24 08:55:47;;;;;;;0.60;0.50;;;;;;;15.23;100.00;98319.69;6159013;23;20221;-82
2023/04/24 08:58:16;;;;;;;0.83;0.73;;;;;;;15.17;100.00;98310.81;6134643;23;20168;-81
2023/04/24 09:00:46;;;;;;;0.83;0.40;;;;;;;15.12;100.00;98323.53;6158779;23;20260;-82
2023/04/24 09:03:15;;;;;;;1.57;0.40;;;;;;;15.19;100.00;98334.84;6158913;23;20172;-82
2023/04/24 09:05:45;;;;;;;0.37;0.30;;;;;;;15.23;100.00;98333.19;6134587;23;20171;-81
2023/04/24 09:08:14;;;;;;;0.30;0.30;;;;;;;15.22;100.00;98337.78;6159049;23;20185;-81
2023/04/24 09:10:41;;;;;;;0.57;0.43;;;;;;;15.13;100.00;98330.56;6158912;23;20643;-82
2023/04/24 09:13:11;;;;;;;0.50;0.30;;;;;;;15.08;100.00;98328.69;6156513;23;20253;-82
2023/04/24 09:15:38;;;;;;;0.57;0.40;;;;;;;15.19;100.00;98332.13;6158130;23;20175;-82
2023/04/24 09:18:05;;;;;;;0.53;0.30;;;;;;;15.06;100.00;98330.06;6158127;23;20514;-82
2023/04/24 09:20:32;;;;;;;0.40;0.30;;;;;;;14.98;100.00;98331.44;6157918;23;20181;-83
2023/04/24 09:22:59;;;;;;;0.30;0.23;;;;;;;14.91;100.00;98339.88;6158090;23;20202;-82
2023/04/24 09:25:35;;;;;;;0.97;0.27;;;;;;;14.86;100.00;98339.91;6133357;23;20244;-82
2023/04/24 09:28:03;;;;;;;0.63;0.23;;;;;;;14.89;100.00;98344.72;6133593;23;20173;-82
2023/04/24 09:30:30;;;;;;;0.30;0.30;;;;;;;14.72;100.00;98344.28;6133343;23;20192;-82
2023/04/24 09:33:14;;;;;;;0.30;0.30;;;;;;;14.81;100.00;98345.31;6133413;23;20251;-83
2023/04/24 09:35:43;;;;;;;0.30;0.30;;;;;;;14.87;100.00;98341.50;6133314;23;20175;-80
2023/04/24 09:38:10;;;;;;;0.53;0.43;;;;;;;14.74;100.00;98344.81;6109208;23;20180;-82
2023/04/24 09:40:37;;;;;;;0.30;0.30;;;;;;;14.71;100.00;98356.16;6109613;23;20172;-81
2023/04/24 09:43:10;;;;;;;1.57;0.37;;;;;;;14.83;100.00;98334.25;6134196;23;20258;-81
2023/04/24 09:45:39;;;;;;;0.40;0.20;;;;;;;14.88;100.00;98332.31;6133957;23;20148;-81
2023/04/24 09:48:10;;;;;;;0.80;0.30;;;;;;;14.78;100.00;98348.56;6109492;23;20192;-82
2023/04/24 09:50:37;;;;;;;2.07;0.30;;;;;;;14.85;100.00;98343.66;6109503;23;20198;-81
2023/04/24 09:53:08;;;;;;;0.30;0.30;;;;;;;14.81;100.00;98358.78;6133260;23;20251;-82
2023/04/24 09:55:40;;;;;;;0.17;0.17;;;;;;;14.70;100.00;98359.09;6134233;23;20233;-81
2023/04/24 09:58:08;;;;;;;0.40;0.30;;;;;;;14.76;100.00;98356.13;6109656;23;20159;-82
2023/04/24 10:00:34;;;;;;;0.30;0.20;;;;;;;14.73;100.00;98362.09;6109802;23;20175;-81
2023/04/24 10:03:03;;;;;;;0.20;0.20;;;;;;;14.78;100.00;98364.75;6158570;23;20248;-81
2023/04/24 10:05:32;;;;;;;0.50;0.30;;;;;;;14.70;100.00;98364.50;6133765;23;20178;-81
2023/04/24 10:08:03;;;;;;;0.27;0.20;;;;;;;14.61;100.00;98375.06;6133718;23;20160;-82
2023/04/24 10:10:31;;;;;;;0.60;0.50;;;;;;;14.53;100.00;98373.75;6109164;23;20215;-81
2023/04/24 10:12:59;;;;;;;0.83;0.30;;;;;;;14.58;100.00;98367.53;6109219;23;20184;-83
2023/04/24 10:15:26;;;;;;;0.30;0.30;;;;;;;14.65;100.00;98372.63;6133396;23;20175;-81
2023/04/24 10:17:53;;;;;;;1.07;0.30;;;;;;;14.49;100.00;98377.28;6133690;23;20480;-82
2023/04/24 10:20:21;;;;;;;0.37;0.30;;;;;;;14.64;100.00;98379.09;6109382;23;20180;-82
2023/04/24 10:22:50;;;;;;;1.00;0.63;;;;;;;14.63;100.00;98382.88;6109454;23;20206;-83
2023/04/24 10:25:22;;;;;;;0.40;0.30;;;;;;;14.66;100.00;98383.13;6133754;23;20174;-83
2023/04/24 10:27:50;;;;;;;0.43;0.20;;;;;;;14.69;100.00;98382.59;6133542;23;20214;-83
2023/04/24 10:30:19;;;;;;;0.33;0.20;;;;;;;14.72;100.00;98387.41;6133648;23;20273;-83
2023/04/24 10:32:46;;;;;;;0.30;0.30;;;;;;;14.71;100.00;98382.28;6111786;23;20183;-82
2023/04/24 10:35:14;;;;;;;0.93;0.30;;;;;;;14.73;100.00;98385.53;6135795;23;20262;-82
2023/04/24 10:37:46;;;;;;;0.73;0.40;;;;;;;14.84;100.00;98387.09;6111981;23;20178;-82
2023/04/24 10:40:18;;;;;;;0.30;0.30;;;;;;;14.75;100.00;98381.47;6135889;23;20171;-82
2023/04/24 10:42:48;;;;;;;0.50;0.40;;;;;;;14.66;100.00;98385.81;6112020;23;20616;-82
2023/04/24 10:45:21;;;;;;;0.30;0.30;;;;;;;14.70;100.00;98396.84;6135634;23;20179;-82
2023/04/24 10:47:52;;;;;;;0.93;0.30;;;;;;;14.83;100.00;98390.88;6111614;23;20192;-82
2023/04/24 10:50:19;;;;;;;0.33;0.30;;;;;;;14.68;100.00;98393.63;6159665;23;20686;-81
2023/04/24 10:52:47;;;;;;;0.27;0.27;;;;;;;14.73;100.00;98399.00;6135464;23;20200;-82
2023/04/24 10:55:15;;;;;;;0.70;0.50;;;;;;;14.57;100.00;98398.25;6135196;23;20185;-81
2023/04/24 10:58:02;;;;;;;0.30;0.23;;;;;;;14.67;100.00;98403.63;6135818;23;20168;-82
2023/04/24 11:00:29;;;;;;;0.63;0.40;;;;;;;14.69;100.00;98397.94;6135216;23;20198;-81
2023/04/24 11:02:57;;;;;;;0.20;0.20;;;;;;;14.67;100.00;98402.81;6111319;23;20180;-82
2023/04/24 11:05:51;;;;;;;0.30;0.30;;;;;;;14.80;100.00;98402.19;6111258;23;20180;-81
2023/04/24 11:08:24;;;;;;;0.33;0.30;;;;;;;14.84;100.00;98395.16;6135106;23;20168;-81
2023/04/24 11:11:16;;;;;;;0.50;0.23;;;;;;;14.98;100.00;98398.88;6111029;23;20195;-81
2023/04/24 11:13:55;;;;;;;0.80;0.30;;;;;;;15.15;100.00;98403.94;6104279;23;20195;-82
2023/04/24 11:16:38;;;;;;;0.30;0.30;;;;;;;15.27;100.00;98399.81;6135120;23;20171;-82
2023/04/24 11:19:15;;;;;;;0.30;0.30;;;;;;;15.29;100.00;98394.94;6135137;23;20164;-83
2023/04/24 11:21:58;;;;;;;0.83;0.30;;;;;;;15.50;100.00;98395.59;6159608;23;20177;-81
2023/04/24 11:24:26;;;;;;;0.40;0.40;;;;;;;15.78;100.00;98399.47;6150079;23;20205;-81
2023/04/24 11:26:58;;;;;;;0.80;0.20;;;;;;;16.22;100.00;98393.94;6159504;23;20268;-81
2023/04/24 11:29:45;;;;;;;0.47;0.40;;;;;;;16.28;100.00;98396.28;6184096;23;20154;-82
2023/04/24 11:32:22;;;;;;;0.70;0.60;;;;;;;16.48;100.00;98418.78;6183698;23;20172;-82